createdAt,value
2022-08-20T00:01:01.798Z,21.40
2022-08-20T00:03:32.228Z,22.50
2022-08-20T00:06:02.856Z,23.90
2022-08-20T00:08:31.564Z,22.08
2022-08-20T00:11:00.402Z,21.52
2022-08-20T00:13:31.031Z,19.02
2022-08-20T00:16:00.203Z,21.70
2022-08-20T00:18:28.721Z,20.70
2022-08-20T00:20:57.694Z,21.85
2022-08-20T00:23:27.571Z,21.92
2022-08-20T00:25:56.093Z,23.00
2022-08-20T00:28:24.515Z,24.83
2022-08-20T00:30:52.874Z,22.65
2022-08-20T00:33:22.912Z,23.65
2022-08-20T00:35:53.175Z,20.33
2022-08-20T00:38:21.811Z,20.42
2022-08-20T00:40:52.975Z,24.70
2022-08-20T00:43:29.622Z,22.98
2022-08-20T00:45:58.218Z,23.17
2022-08-20T00:48:27.881Z,19.48
2022-08-20T00:50:58.812Z,22.73
2022-08-20T00:53:29.275Z,22.23
2022-08-20T00:55:59.192Z,23.05
2022-08-20T00:58:28.921Z,20.88
2022-08-20T01:00:57.545Z,22.45
2022-08-20T01:03:26.039Z,21.13
2022-08-20T01:05:54.732Z,18.63
2022-08-20T01:08:26.636Z,20.63
2022-08-20T01:11:07.301Z,19.30
2022-08-20T01:13:38.402Z,18.50
2022-08-20T01:16:10.805Z,18.58
2022-08-20T01:18:40.496Z,16.30
2022-08-20T01:21:09.340Z,17.75
2022-08-20T01:23:41.356Z,15.13
2022-08-20T01:26:13.127Z,16.60
2022-08-20T01:28:44.658Z,16.05
2022-08-20T01:31:14.458Z,15.05
2022-08-20T01:33:44.212Z,16.42
2022-08-20T01:36:16.327Z,16.42
2022-08-20T01:38:54.168Z,15.63
2022-08-20T01:41:38.443Z,16.60
2022-08-20T01:44:08.622Z,16.77
2022-08-20T01:46:43.754Z,14.27
2022-08-20T01:49:21.066Z,15.43
2022-08-20T01:51:51.841Z,14.68
2022-08-20T01:54:20.580Z,14.25
2022-08-20T01:56:54.577Z,14.57
2022-08-20T01:59:22.935Z,14.63
2022-08-20T02:01:51.933Z,15.27
2022-08-20T02:04:20.388Z,15.93
2022-08-20T02:06:57.166Z,17.27
2022-08-20T02:09:26.242Z,14.95
2022-08-20T02:11:56.546Z,17.55
2022-08-20T02:14:25.545Z,16.90
2022-08-20T02:16:55.308Z,18.17
2022-08-20T02:19:26.017Z,16.40
2022-08-20T02:21:58.130Z,18.02
2022-08-20T02:24:26.540Z,17.38
2022-08-20T02:26:56.542Z,21.60
2022-08-20T02:29:26.164Z,17.50
2022-08-20T02:32:25.141Z,20.08
2022-08-20T02:34:43.660Z,18.77
2022-08-20T02:37:14.596Z,17.52
2022-08-20T02:39:43.006Z,19.98
2022-08-20T02:42:13.330Z,21.67
2022-08-20T02:44:41.888Z,20.35
2022-08-20T02:47:10.314Z,18.08
2022-08-20T02:49:38.792Z,18.92
2022-08-20T02:52:07.224Z,18.42
2022-08-20T02:54:35.976Z,17.67
2022-08-20T02:57:04.716Z,18.75
2022-08-20T02:59:34.497Z,17.50
2022-08-20T03:02:02.941Z,17.60
2022-08-20T03:04:31.562Z,17.40
2022-08-20T03:07:00.061Z,19.40
2022-08-20T03:09:28.506Z,17.88
2022-08-20T03:11:56.986Z,17.67
2022-08-20T03:14:25.647Z,16.95
2022-08-20T03:16:55.427Z,19.27
2022-08-20T03:19:24.105Z,18.30
2022-08-20T03:21:52.865Z,17.13
2022-08-20T03:24:21.275Z,16.75
2022-08-20T03:26:49.783Z,17.65
2022-08-20T03:29:18.184Z,21.33
2022-08-20T03:31:46.661Z,16.00
2022-08-20T03:34:16.470Z,16.90
2022-08-20T03:36:44.906Z,15.35
2022-08-20T03:39:13.413Z,19.70
2022-08-20T03:41:42.000Z,17.70
2022-08-20T03:44:10.400Z,19.42
2022-08-20T03:46:40.085Z,20.75
2022-08-20T03:49:08.470Z,17.60
2022-08-20T03:51:57.285Z,17.65
2022-08-20T03:54:31.608Z,17.30
2022-08-20T03:57:00.559Z,19.75
2022-08-20T03:59:28.949Z,16.75
2022-08-20T04:01:57.537Z,19.85
2022-08-20T04:04:25.957Z,19.90
2022-08-20T04:06:55.908Z,20.23
2022-08-20T04:09:24.354Z,21.35
2022-08-20T04:12:00.227Z,21.95
2022-08-20T04:14:29.317Z,19.95
2022-08-20T04:16:58.581Z,19.70
2022-08-20T04:19:30.129Z,19.08
2022-08-20T04:22:02.275Z,22.08
2022-08-20T04:24:31.971Z,22.98
2022-08-20T04:27:02.576Z,24.10
2022-08-20T04:29:32.556Z,22.00
2022-08-20T04:32:02.651Z,21.75
2022-08-20T04:34:32.162Z,21.42
2022-08-20T04:37:01.947Z,24.20
2022-08-20T04:39:30.357Z,21.63
2022-08-20T04:41:57.804Z,22.42
2022-08-20T04:44:26.225Z,20.55
2022-08-20T04:46:54.663Z,22.27
2022-08-20T04:49:26.473Z,19.95
2022-08-20T04:51:55.692Z,21.75
2022-08-20T04:54:25.472Z,20.75
2022-08-20T04:56:53.932Z,20.15
2022-08-20T04:59:22.378Z,18.73
2022-08-20T05:01:50.820Z,16.83
2022-08-20T05:04:19.309Z,22.75
2022-08-20T05:06:48.365Z,20.65
2022-08-20T05:09:16.902Z,21.55
2022-08-20T05:11:46.679Z,21.52
2022-08-20T05:14:15.434Z,23.65
2022-08-20T05:16:43.918Z,23.42
2022-08-20T05:19:14.319Z,18.95
2022-08-20T05:21:43.060Z,19.83
2022-08-20T05:24:12.220Z,20.67
2022-08-20T05:26:40.643Z,19.15
2022-08-20T05:29:10.367Z,22.58
2022-08-20T05:31:39.384Z,21.77
2022-08-20T05:34:10.358Z,22.63
2022-08-20T05:36:39.730Z,22.88
2022-08-20T05:39:08.875Z,22.88
2022-08-20T05:41:37.804Z,21.40
2022-08-20T05:44:09.954Z,20.65
2022-08-20T05:46:40.958Z,20.77
2022-08-20T05:49:09.530Z,23.10
2022-08-20T05:51:38.087Z,23.02
2022-08-20T05:54:07.016Z,23.75
2022-08-20T05:56:35.992Z,23.30
2022-08-20T05:59:05.005Z,20.73
2022-08-20T06:01:34.155Z,21.88
2022-08-20T06:04:21.871Z,20.50
2022-08-20T06:06:51.186Z,25.92
2022-08-20T06:09:31.001Z,25.15
2022-08-20T06:12:00.608Z,24.58
2022-08-20T06:14:29.212Z,27.10
2022-08-20T06:16:59.136Z,25.20
2022-08-20T06:19:32.228Z,24.65
2022-08-20T06:22:01.893Z,26.50
2022-08-20T06:24:30.672Z,26.35
2022-08-20T06:26:59.516Z,27.77
2022-08-20T06:29:28.718Z,24.90
2022-08-20T06:31:57.360Z,23.85
2022-08-20T06:34:28.426Z,22.27
2022-08-20T06:37:00.954Z,23.75
2022-08-20T06:39:30.014Z,26.60
2022-08-20T06:41:59.582Z,25.25
2022-08-20T06:44:28.510Z,27.02
2022-08-20T06:46:56.989Z,25.25
2022-08-20T06:49:25.415Z,24.45
2022-08-20T06:51:56.147Z,24.55
2022-08-20T06:54:29.441Z,26.42
2022-08-20T06:56:58.191Z,32.15
2022-08-20T06:59:26.561Z,31.88
2022-08-20T07:01:56.705Z,31.70
2022-08-20T07:04:25.876Z,31.92
2022-08-20T07:06:54.421Z,31.73
2022-08-20T07:09:23.450Z,31.95
2022-08-20T07:11:53.389Z,32.17
2022-08-20T07:14:22.320Z,31.42
2022-08-20T07:16:50.753Z,29.52
2022-08-20T07:19:19.132Z,30.20
2022-08-20T07:24:13.917Z,26.40
2022-08-20T07:26:42.339Z,28.52
2022-08-20T07:29:10.746Z,27.63
2022-08-20T07:31:56.897Z,21.30
2022-08-20T07:34:25.331Z,24.33
2022-08-20T07:36:53.720Z,24.15
2022-08-20T07:39:24.761Z,22.63
2022-08-20T07:42:03.241Z,23.45
2022-08-20T07:44:31.709Z,22.75
2022-08-20T07:47:00.341Z,24.02
2022-08-20T07:49:28.780Z,23.05
2022-08-20T07:51:57.255Z,20.35
2022-08-20T07:54:28.058Z,25.63
2022-08-20T07:57:02.574Z,33.17
2022-08-20T07:59:31.375Z,34.28
2022-08-20T08:01:59.814Z,36.20
2022-08-20T08:04:28.222Z,36.78
2022-08-20T08:07:00.118Z,39.33
2022-08-20T08:09:30.420Z,43.63
2022-08-20T08:12:00.672Z,44.25
2022-08-20T08:14:29.781Z,46.08
2022-08-20T08:16:59.050Z,47.88
2022-08-20T08:19:28.618Z,44.92
2022-08-20T08:21:58.709Z,38.47
2022-08-20T08:24:28.552Z,40.65
2022-08-20T08:26:58.618Z,41.88
2022-08-20T08:29:27.318Z,36.25
2022-08-20T08:31:55.771Z,35.38
2022-08-20T08:34:25.316Z,33.33
2022-08-20T08:36:54.264Z,33.25
2022-08-20T08:39:24.494Z,40.42
2022-08-20T08:42:03.505Z,36.58
2022-08-20T08:44:36.484Z,39.95
2022-08-20T08:47:18.195Z,35.35
2022-08-20T08:49:47.401Z,37.20
2022-08-20T08:52:19.794Z,34.72
2022-08-20T08:54:49.923Z,37.38
2022-08-20T08:57:19.984Z,34.55
2022-08-20T09:00:03.599Z,30.70
2022-08-20T09:02:34.306Z,34.90
2022-08-20T09:05:04.339Z,31.33
2022-08-20T09:07:34.793Z,29.30
2022-08-20T09:11:21.384Z,29.10
2022-08-20T09:13:49.839Z,26.08
2022-08-20T09:16:18.234Z,25.80
2022-08-20T09:18:46.703Z,27.35
2022-08-20T09:21:15.502Z,29.98
2022-08-20T09:23:43.888Z,25.98
2022-08-20T09:26:13.615Z,23.58
2022-08-20T09:28:43.526Z,24.05
2022-08-20T09:31:12.288Z,22.90
2022-08-20T09:33:40.722Z,21.05
2022-08-20T09:36:31.789Z,23.83
2022-08-20T09:38:58.377Z,21.50
2022-08-20T09:41:26.789Z,20.77
2022-08-20T09:43:56.694Z,20.92
2022-08-20T09:46:27.181Z,21.77
2022-08-20T09:48:56.004Z,24.95
2022-08-20T09:51:24.741Z,23.30
2022-08-20T09:53:53.210Z,25.48
2022-08-20T09:56:21.695Z,27.48
2022-08-20T09:58:51.318Z,27.00
2022-08-20T10:01:21.899Z,23.40
2022-08-20T10:03:51.131Z,24.85
2022-08-20T10:06:20.700Z,28.42
2022-08-20T10:08:49.497Z,23.95
2022-08-20T10:11:18.366Z,25.35
2022-08-20T10:13:46.929Z,25.73
2022-08-20T10:16:15.467Z,21.45
2022-08-20T10:18:45.327Z,22.33
2022-08-20T10:21:14.495Z,20.98
2022-08-20T10:23:42.919Z,24.23
2022-08-20T10:26:11.673Z,25.10
2022-08-20T10:28:40.286Z,20.80
2022-08-20T10:31:09.130Z,21.23
2022-08-20T10:33:37.794Z,21.20
2022-08-20T10:36:10.887Z,21.10
2022-08-20T10:38:39.321Z,20.30
2022-08-20T10:41:08.149Z,21.40
2022-08-20T10:43:36.750Z,22.08
2022-08-20T10:46:05.367Z,19.75
2022-08-20T10:48:33.814Z,24.52
2022-08-20T10:51:02.516Z,22.63
2022-08-20T10:53:32.440Z,23.38
2022-08-20T10:56:01.013Z,22.92
2022-08-20T10:58:37.451Z,23.65
2022-08-20T11:01:07.975Z,22.98
2022-08-20T11:03:36.445Z,22.77
2022-08-20T11:06:05.152Z,20.92
2022-08-20T11:08:36.248Z,17.58
2022-08-20T11:11:05.617Z,20.73
2022-08-20T11:13:34.202Z,19.08
2022-08-20T11:16:03.030Z,23.65
2022-08-20T11:18:32.004Z,24.50
2022-08-20T11:21:01.412Z,26.02
2022-08-20T11:23:30.516Z,24.88
2022-08-20T11:26:00.471Z,23.83
2022-08-20T11:28:32.285Z,21.35
2022-08-20T11:31:01.334Z,21.08
2022-08-20T11:33:29.785Z,21.17
2022-08-20T11:35:58.206Z,24.95
2022-08-20T11:38:27.004Z,24.80
2022-08-20T11:40:55.488Z,26.17
2022-08-20T11:43:25.293Z,25.42
2022-08-20T11:45:55.943Z,21.77
2022-08-20T11:48:24.435Z,22.05
2022-08-20T11:50:52.888Z,19.60
2022-08-20T11:53:21.567Z,23.27
2022-08-20T11:55:51.115Z,23.73
2022-08-20T11:58:19.941Z,24.92
2022-08-20T12:00:49.723Z,22.25
2022-08-20T12:03:18.195Z,19.58
2022-08-20T12:05:50.019Z,18.10
2022-08-20T12:08:25.511Z,17.08
2022-08-20T12:10:56.189Z,20.10
2022-08-20T12:13:47.174Z,19.95
2022-08-20T12:16:14.408Z,21.65
2022-08-20T12:18:43.035Z,20.90
2022-08-20T12:21:11.537Z,17.92
2022-08-20T12:23:39.944Z,19.80
2022-08-20T12:26:08.423Z,15.60
2022-08-20T12:28:36.826Z,18.83
2022-08-20T12:31:05.330Z,16.38
2022-08-20T12:33:35.120Z,18.92
2022-08-20T12:36:03.557Z,17.25
2022-08-20T12:38:31.962Z,18.35
2022-08-20T12:41:00.795Z,16.42
2022-08-20T12:43:29.202Z,16.58
2022-08-20T12:45:57.682Z,16.67
2022-08-20T12:48:26.251Z,14.43
2022-08-20T12:50:56.175Z,18.10
2022-08-20T12:53:24.569Z,17.05
2022-08-20T12:55:52.985Z,18.00
2022-08-20T12:58:21.406Z,17.88
2022-08-20T13:00:50.830Z,15.13
2022-08-20T13:03:19.792Z,17.02
2022-08-20T13:05:48.241Z,16.88
2022-08-20T13:08:19.398Z,13.75
2022-08-20T13:10:48.356Z,15.23
2022-08-20T13:13:20.567Z,11.95
2022-08-20T13:15:50.074Z,12.55
2022-08-20T13:18:18.658Z,11.38
2022-08-20T13:20:47.668Z,11.80
2022-08-20T13:23:16.036Z,9.75
2022-08-20T13:25:45.795Z,10.25
2022-08-20T13:28:14.214Z,10.50
2022-08-20T13:30:42.623Z,14.13
2022-08-20T13:33:11.402Z,11.68
2022-08-20T13:35:39.808Z,11.30
2022-08-20T13:38:08.294Z,9.35
2022-08-20T13:40:37.033Z,8.15
2022-08-20T13:43:07.626Z,12.48
2022-08-20T13:45:41.065Z,8.18
2022-08-20T13:48:14.549Z,10.60
2022-08-20T13:50:46.898Z,12.45
2022-08-20T13:53:15.893Z,10.73
2022-08-20T13:55:44.329Z,9.65
2022-08-20T13:58:14.071Z,10.75
2022-08-20T14:00:42.560Z,10.15
2022-08-20T14:03:10.991Z,10.65
2022-08-20T14:05:39.881Z,7.32
2022-08-20T14:08:10.349Z,10.70
2022-08-20T14:10:39.140Z,8.20
2022-08-20T14:13:15.154Z,8.77
2022-08-20T14:15:45.744Z,9.00
2022-08-20T14:18:14.490Z,10.35
2022-08-20T14:20:45.365Z,9.90
2022-08-20T14:23:14.550Z,9.45
2022-08-20T14:25:43.004Z,10.45
2022-08-20T14:28:12.486Z,9.23
2022-08-20T14:30:41.040Z,4.53
2022-08-20T14:33:11.130Z,6.28
2022-08-20T14:35:40.146Z,9.13
2022-08-20T14:38:08.932Z,7.38
2022-08-20T14:40:37.888Z,9.32
2022-08-20T14:43:06.324Z,9.70
2022-08-20T14:45:34.732Z,7.97
2022-08-20T14:48:03.188Z,8.05
2022-08-20T14:50:34.070Z,9.15
2022-08-20T14:53:02.906Z,7.30
2022-08-20T14:55:32.328Z,7.22
2022-08-20T14:58:00.792Z,7.15
2022-08-20T15:00:30.783Z,6.53
2022-08-20T15:02:59.459Z,8.20
2022-08-20T15:05:28.048Z,8.15
2022-08-20T15:07:59.711Z,10.55
2022-08-20T15:10:29.853Z,7.13
2022-08-20T15:12:58.629Z,4.32
2022-08-20T15:15:27.497Z,7.35
2022-08-20T15:17:56.780Z,5.65
2022-08-20T15:20:26.121Z,5.95
2022-08-20T15:22:54.634Z,6.70
2022-08-20T15:25:25.756Z,5.05
2022-08-20T15:27:58.392Z,7.18
2022-08-20T15:30:31.013Z,5.65
2022-08-20T15:32:59.718Z,4.85
2022-08-20T15:35:29.114Z,4.90
2022-08-20T15:37:58.448Z,5.03
2022-08-20T15:40:30.205Z,8.82
2022-08-20T15:42:59.057Z,6.22
2022-08-20T15:45:27.866Z,7.88
2022-08-20T15:47:57.651Z,5.90
2022-08-20T15:50:40.072Z,5.50
2022-08-20T15:56:01.458Z,6.47
2022-08-20T15:58:34.040Z,6.97
2022-08-20T16:01:23.725Z,6.32
2022-08-20T16:04:02.470Z,5.85
2022-08-20T16:06:32.889Z,5.75
2022-08-20T16:09:08.993Z,5.07
2022-08-20T16:11:44.549Z,6.38
2022-08-20T16:14:16.669Z,3.80
2022-08-20T16:19:23.200Z,4.90
2022-08-20T16:21:52.410Z,5.45
2022-08-20T16:24:21.560Z,5.85
2022-08-20T16:27:01.535Z,5.15
2022-08-20T16:29:37.581Z,5.63
2022-08-20T16:32:08.552Z,7.22
2022-08-20T16:34:41.943Z,5.53
2022-08-20T16:37:18.571Z,7.68
2022-08-20T16:39:50.823Z,5.95
2022-08-20T16:42:23.297Z,5.65
2022-08-20T16:44:53.209Z,4.70
2022-08-20T16:47:23.139Z,5.03
2022-08-20T16:49:58.860Z,5.57
2022-08-20T16:52:27.704Z,5.68
2022-08-20T16:54:56.113Z,5.05
2022-08-20T16:57:24.986Z,4.97
2022-08-20T16:59:57.517Z,6.72
2022-08-20T17:02:26.536Z,4.63
2022-08-20T17:04:59.253Z,7.70
2022-08-20T17:07:31.093Z,4.30
2022-08-20T17:10:10.332Z,6.05
2022-08-20T17:12:39.187Z,7.80
2022-08-20T17:15:08.133Z,8.50
2022-08-20T17:17:37.593Z,10.75
2022-08-20T17:20:19.846Z,7.97
2022-08-20T17:22:50.461Z,8.07
2022-08-20T17:25:21.829Z,9.07
2022-08-20T17:27:50.337Z,8.20
2022-08-20T17:30:22.683Z,8.45
2022-08-20T17:32:58.195Z,7.68
2022-08-20T17:35:33.327Z,7.30
2022-08-20T17:38:02.621Z,10.13
2022-08-20T17:40:34.254Z,9.48
2022-08-20T17:43:03.675Z,7.03
2022-08-20T17:45:33.805Z,7.38
2022-08-20T17:48:02.272Z,7.45
2022-08-20T17:50:34.982Z,7.95
2022-08-20T17:53:07.884Z,8.90
2022-08-20T17:55:37.516Z,6.18
2022-08-20T17:58:08.368Z,9.85
2022-08-20T18:00:36.767Z,7.55
2022-08-20T18:03:11.435Z,7.93
2022-08-20T18:05:41.586Z,9.00
2022-08-20T18:08:16.877Z,6.07
2022-08-20T18:10:53.971Z,8.65
2022-08-20T18:13:26.402Z,7.50
2022-08-20T18:15:56.681Z,6.50
2022-08-20T18:18:30.986Z,9.27
2022-08-20T18:21:15.450Z,8.70
2022-08-20T18:23:47.484Z,7.80
2022-08-20T18:26:18.612Z,9.25
2022-08-20T18:28:48.784Z,10.68
2022-08-20T18:31:27.150Z,8.18
2022-08-20T18:33:55.758Z,5.82
2022-08-20T18:36:28.349Z,8.13
2022-08-20T18:39:03.981Z,11.55
2022-08-20T18:41:33.376Z,10.57
2022-08-20T18:47:23.807Z,9.82
2022-08-20T18:50:01.323Z,8.23
2022-08-20T18:52:31.153Z,6.07
2022-08-20T18:55:01.286Z,7.45
2022-08-20T18:57:41.152Z,11.48
2022-08-20T19:00:12.544Z,9.95
2022-08-20T19:02:54.585Z,8.98
2022-08-20T19:05:26.601Z,7.72
2022-08-20T19:07:55.914Z,8.27
2022-08-20T19:10:35.468Z,11.02
2022-08-20T19:13:21.577Z,5.47
2022-08-20T19:15:51.388Z,9.30
2022-08-20T19:18:24.969Z,7.80
2022-08-20T19:20:56.541Z,7.95
2022-08-20T19:23:26.146Z,8.52
2022-08-20T19:25:56.719Z,9.77
2022-08-20T19:28:28.189Z,5.85
2022-08-20T19:30:57.074Z,9.57
2022-08-20T19:33:31.002Z,8.32
2022-08-20T19:36:13.256Z,9.02
2022-08-20T19:38:45.989Z,8.15
2022-08-20T19:41:29.243Z,7.28
2022-08-20T19:44:00.705Z,7.35
2022-08-20T19:46:31.306Z,6.72
2022-08-20T19:49:10.641Z,11.40
2022-08-20T19:51:45.854Z,9.20
2022-08-20T19:54:21.244Z,6.47
2022-08-20T19:56:49.782Z,5.35
2022-08-20T19:59:20.773Z,9.38
2022-08-20T20:01:53.460Z,7.95
2022-08-20T20:04:26.832Z,7.15
2022-08-20T20:06:58.394Z,7.05
2022-08-20T20:09:27.997Z,11.38
2022-08-20T20:11:57.276Z,10.57
2022-08-20T20:14:28.264Z,7.68
2022-08-20T20:16:57.587Z,8.63
2022-08-20T20:19:28.301Z,8.85
2022-08-20T20:22:04.944Z,7.50
2022-08-20T20:24:42.129Z,8.40
2022-08-20T20:27:13.558Z,8.07
2022-08-20T20:29:43.761Z,9.63
2022-08-20T20:32:18.510Z,6.70
2022-08-20T20:34:56.224Z,12.02
2022-08-20T20:37:48.736Z,9.52
2022-08-20T20:40:23.396Z,7.85
2022-08-20T20:42:59.279Z,5.55
2022-08-20T20:45:34.190Z,5.50
2022-08-20T20:48:03.832Z,7.93
2022-08-20T20:50:35.366Z,6.68
2022-08-20T20:53:03.932Z,7.88
2022-08-20T20:55:34.232Z,7.43
2022-08-20T20:58:02.933Z,8.82
2022-08-20T21:00:32.700Z,10.00
2022-08-20T21:03:03.890Z,8.05
2022-08-20T21:05:34.514Z,6.18
2022-08-20T21:08:05.340Z,6.25
2022-08-20T21:10:34.926Z,9.45
2022-08-20T21:13:04.331Z,7.40
2022-08-20T21:15:33.743Z,12.18
2022-08-20T21:18:03.683Z,8.73
2022-08-20T21:20:32.608Z,11.38
2022-08-20T21:23:02.556Z,10.43
2022-08-20T21:25:31.789Z,10.00
2022-08-20T21:28:00.494Z,9.93
2022-08-20T21:30:29.140Z,9.27
2022-08-20T21:32:57.963Z,8.65
2022-08-20T21:35:26.574Z,10.85
2022-08-20T21:37:55.249Z,6.82
2022-08-20T21:40:28.241Z,7.70
2022-08-20T21:42:57.498Z,8.55
2022-08-20T21:45:28.484Z,8.23
2022-08-20T21:47:57.210Z,10.25
2022-08-20T21:50:26.086Z,6.18
2022-08-20T21:52:59.199Z,10.73
2022-08-20T21:55:30.222Z,7.95
2022-08-20T21:57:59.376Z,10.55
2022-08-20T22:00:46.577Z,10.52
2022-08-20T22:03:15.223Z,8.02
2022-08-20T22:05:43.688Z,5.57
2022-08-20T22:08:12.116Z,7.75
2022-08-20T22:10:41.937Z,7.97
2022-08-20T22:13:10.410Z,9.80
2022-08-20T22:15:39.865Z,9.13
2022-08-20T22:18:08.574Z,10.88
2022-08-20T22:20:37.046Z,9.18
2022-08-20T22:23:06.359Z,9.80
2022-08-20T22:25:35.409Z,8.13
2022-08-20T22:28:05.334Z,7.57
2022-08-20T22:30:33.793Z,9.90
2022-08-20T22:33:03.548Z,10.30
2022-08-20T22:35:32.337Z,6.20
2022-08-20T22:38:00.724Z,8.13
2022-08-20T22:40:29.247Z,8.45
2022-08-20T22:42:57.759Z,7.85
2022-08-20T22:45:27.614Z,10.05
2022-08-20T22:47:56.170Z,7.45
2022-08-20T22:50:25.250Z,6.28
2022-08-20T22:52:54.195Z,6.07
2022-08-20T22:55:22.740Z,6.72
2022-08-20T22:57:51.116Z,5.68
2022-08-20T23:00:20.486Z,6.75
2022-08-20T23:02:52.536Z,8.93
2022-08-20T23:05:22.993Z,8.27
2022-08-20T23:07:54.161Z,7.82
2022-08-20T23:10:23.153Z,8.45
2022-08-20T23:12:51.595Z,7.50
2022-08-20T23:15:19.995Z,7.90
2022-08-20T23:17:49.870Z,6.78
2022-08-20T23:20:19.126Z,5.30
2022-08-20T23:22:47.534Z,7.97
2022-08-20T23:25:16.013Z,7.07
2022-08-20T23:27:46.510Z,5.88
2022-08-20T23:30:15.351Z,7.78
2022-08-20T23:32:43.797Z,10.18
2022-08-20T23:35:13.645Z,9.38
2022-08-20T23:37:44.604Z,7.22
2022-08-20T23:40:14.207Z,9.90
2022-08-20T23:42:42.807Z,8.07
2022-08-20T23:45:11.829Z,9.90
2022-08-20T23:47:40.440Z,8.00
2022-08-20T23:50:10.348Z,8.57
2022-08-20T23:52:40.244Z,7.43
2022-08-20T23:55:08.986Z,7.63
2022-08-20T23:57:37.752Z,9.65
